Time;durP1;ratioP1;P1;durP2;ratioP2;P2;SDS_P1;SDS_P2;PMS_P1;PMS_P2;Temp;Humidity;BMP_temperature;BMP_pressure;BME280_temperature;BME280_humidity;BME280_pressure;Samples;Min_cycle;Max_cycle;Signal;HPM_P1;HPM_P2
2021/09/25 00:00:33;;;;;;;9.00;5.88;;;11.00;99.90;;;;;;5054714;28;20025;-74
2021/09/25 00:03:03;;;;;;;9.50;7.15;;;11.00;99.90;;;;;;5053289;28;20049;-75
2021/09/25 00:05:36;;;;;;;8.23;6.57;;;11.10;99.90;;;;;;5054503;28;20047;-73
2021/09/25 00:08:03;;;;;;;7.93;6.45;;;11.00;99.90;;;;;;5053748;28;20028;-74
2021/09/25 00:10:30;;;;;;;11.98;7.68;;;11.00;99.90;;;;;;5054644;28;20040;-75
2021/09/25 00:12:57;;;;;;;10.20;6.78;;;11.00;99.90;;;;;;5053656;28;20052;-73
2021/09/25 00:15:29;;;;;;;9.40;7.22;;;11.00;99.90;;;;;;5068698;28;20048;-74
2021/09/25 00:17:56;;;;;;;10.70;6.13;;;10.80;99.90;;;;;;5054772;28;20033;-73
2021/09/25 00:20:23;;;;;;;13.50;6.88;;;10.70;99.90;;;;;;5054213;28;20037;-75
2021/09/25 00:22:50;;;;;;;11.90;6.90;;;10.60;99.90;;;;;;5054043;28;20052;-74
2021/09/25 00:25:16;;;;;;;8.52;6.07;;;10.50;99.90;;;;;;5052769;28;20374;-73
2021/09/25 00:27:43;;;;;;;9.98;6.20;;;10.50;99.90;;;;;;5054240;28;20371;-74
2021/09/25 00:30:11;;;;;;;10.00;6.00;;;10.50;99.90;;;;;;5053730;28;20032;-74
2021/09/25 00:32:38;;;;;;;9.20;6.65;;;10.40;99.90;;;;;;5053975;28;20055;-73
2021/09/25 00:35:06;;;;;;;10.38;6.47;;;10.40;99.90;;;;;;5053777;28;20473;-73
2021/09/25 00:37:32;;;;;;;10.40;6.63;;;10.50;99.90;;;;;;5054177;28;20028;-73
2021/09/25 00:39:59;;;;;;;11.65;6.18;;;10.50;99.90;;;;;;5053286;28;20041;-74
2021/09/25 00:42:25;;;;;;;8.73;5.70;;;10.50;99.90;;;;;;5054292;28;20493;-74
2021/09/25 00:44:51;;;;;;;10.40;6.72;;;10.40;99.90;;;;;;5053772;28;20060;-74
2021/09/25 00:47:18;;;;;;;7.95;6.07;;;10.40;99.90;;;;;;5035717;28;20040;-74
2021/09/25 00:49:44;;;;;;;10.13;6.80;;;10.30;99.90;;;;;;5053779;28;20482;-74
2021/09/25 00:52:10;;;;;;;10.52;7.05;;;10.20;99.90;;;;;;5053449;28;20478;-74
2021/09/25 00:54:37;;;;;;;11.20;6.40;;;10.20;99.90;;;;;;5053117;28;20049;-74
2021/09/25 00:57:04;;;;;;;12.00;7.40;;;10.30;99.90;;;;;;5053117;28;20459;-74
2021/09/25 00:59:30;;;;;;;9.55;6.85;;;10.30;99.90;;;;;;5053387;28;20039;-76
2021/09/25 01:01:57;;;;;;;8.88;6.57;;;10.30;99.90;;;;;;5052626;28;20028;-74
2021/09/25 01:04:23;;;;;;;13.20;6.57;;;10.30;99.90;;;;;;5053481;28;20041;-74
2021/09/25 01:06:49;;;;;;;8.93;6.53;;;10.20;99.90;;;;;;5053216;28;20386;-74
2021/09/25 01:09:16;;;;;;;11.57;7.32;;;10.20;99.90;;;;;;5052771;28;20061;-75
2021/09/25 01:11:42;;;;;;;9.70;7.07;;;10.20;99.90;;;;;;5053118;28;20029;-75
2021/09/25 01:14:10;;;;;;;9.40;6.95;;;10.20;99.90;;;;;;5053328;28;20048;-75
2021/09/25 01:16:36;;;;;;;10.45;6.80;;;10.10;99.90;;;;;;5053085;28;20037;-74
2021/09/25 01:19:03;;;;;;;8.80;7.10;;;10.20;99.90;;;;;;5052647;28;20029;-74
2021/09/25 01:21:29;;;;;;;10.70;7.18;;;10.20;99.90;;;;;;5052818;28;20036;-73
2021/09/25 01:23:55;;;;;;;11.00;7.22;;;10.20;99.90;;;;;;5053104;28;20363;-73
2021/09/25 01:26:24;;;;;;;10.52;6.95;;;10.20;99.90;;;;;;5053667;28;20052;-73
2021/09/25 01:28:53;;;;;;;12.23;6.63;;;10.20;99.90;;;;;;5053526;28;20040;-75
2021/09/25 01:31:20;;;;;;;10.00;6.55;;;10.00;99.90;;;;;;5052570;28;20036;-74
2021/09/25 01:33:49;;;;;;;10.07;6.45;;;9.80;99.90;;;;;;5052590;28;20043;-74
2021/09/25 01:36:16;;;;;;;9.18;6.30;;;9.70;99.90;;;;;;5052377;28;20040;-73
2021/09/25 01:38:43;;;;;;;9.18;6.50;;;9.70;99.90;;;;;;5052703;28;20493;-74
2021/09/25 01:41:10;;;;;;;12.35;6.90;;;9.60;99.90;;;;;;5050572;28;20044;-73
2021/09/25 01:43:36;;;;;;;11.77;6.63;;;9.70;99.90;;;;;;5052394;28;20443;-73
2021/09/25 01:46:03;;;;;;;9.20;6.78;;;9.70;99.90;;;;;;5052261;28;20029;-74
2021/09/25 01:48:29;;;;;;;9.93;6.43;;;9.70;99.90;;;;;;5052370;28;20033;-73
2021/09/25 01:50:56;;;;;;;9.10;6.38;;;9.70;99.90;;;;;;5052133;28;20082;-73
2021/09/25 01:53:22;;;;;;;8.77;6.80;;;9.80;99.90;;;;;;5052705;28;20055;-74
2021/09/25 01:55:50;;;;;;;10.15;6.45;;;9.80;99.90;;;;;;5052584;28;20032;-74
2021/09/25 01:58:17;;;;;;;11.80;7.30;;;9.70;99.90;;;;;;5051883;28;20056;-74
2021/09/25 02:00:43;;;;;;;9.43;6.75;;;9.70;99.90;;;;;;5052210;28;20041;-74
2021/09/25 02:03:11;;;;;;;8.85;6.15;;;9.80;99.90;;;;;;5043403;28;20056;-74
2021/09/25 02:05:38;;;;;;;8.88;6.38;;;9.80;99.90;;;;;;5038693;28;20041;-74
2021/09/25 02:08:05;;;;;;;12.88;7.13;;;9.80;99.90;;;;;;5051496;28;20037;-74
2021/09/25 02:10:32;;;;;;;8.38;5.75;;;9.70;99.90;;;;;;5051995;28;20041;-74
2021/09/25 02:12:58;;;;;;;8.75;5.85;;;9.60;99.90;;;;;;5034341;28;20493;-74
2021/09/25 02:15:24;;;;;;;16.73;8.52;;;9.50;99.90;;;;;;5052674;28;20033;-74
2021/09/25 02:17:51;;;;;;;10.60;6.70;;;9.50;99.90;;;;;;5052470;28;20036;-74
2021/09/25 02:20:17;;;;;;;12.80;7.13;;;9.40;99.90;;;;;;5051714;28;20032;-74
2021/09/25 02:22:44;;;;;;;7.85;5.93;;;9.50;99.90;;;;;;5052011;28;20036;-74
2021/09/25 02:25:11;;;;;;;7.30;5.35;;;9.40;99.90;;;;;;5051969;28;20414;-74
2021/09/25 02:27:40;;;;;;;9.10;5.72;;;9.40;99.90;;;;;;5051953;28;20040;-75
2021/09/25 02:30:16;;;;;;;8.50;5.45;;;9.40;99.90;;;;;;5052238;28;20044;-74
2021/09/25 02:32:44;;;;;;;9.00;5.75;;;9.40;99.90;;;;;;5052505;28;20033;-75
2021/09/25 02:35:13;;;;;;;8.13;5.68;;;9.40;99.90;;;;;;5051415;28;20489;-74
2021/09/25 02:37:39;;;;;;;7.43;5.45;;;9.30;99.90;;;;;;5051940;28;20478;-73
2021/09/25 02:40:06;;;;;;;9.75;6.35;;;9.30;99.90;;;;;;5050110;28;20033;-73
2021/09/25 02:42:33;;;;;;;10.55;6.60;;;9.50;99.90;;;;;;5052047;28;20032;-73
2021/09/25 02:44:59;;;;;;;9.95;6.90;;;9.60;99.90;;;;;;5051355;28;20053;-73
2021/09/25 02:47:25;;;;;;;8.73;5.45;;;9.60;99.90;;;;;;5052334;28;20037;-73
2021/09/25 02:49:51;;;;;;;10.95;6.38;;;9.60;99.90;;;;;;5038157;28;20052;-73
2021/09/25 02:52:17;;;;;;;8.75;6.35;;;9.70;99.90;;;;;;5055501;28;20103;-73
2021/09/25 02:54:44;;;;;;;7.45;5.05;;;9.60;99.90;;;;;;5058846;28;20033;-74
2021/09/25 02:57:10;;;;;;;9.07;6.32;;;9.40;99.90;;;;;;5058022;28;20029;-73
2021/09/25 02:59:36;;;;;;;6.45;5.32;;;9.30;99.90;;;;;;5054745;28;20048;-73
2021/09/25 03:02:02;;;;;;;11.77;5.88;;;9.10;99.90;;;;;;5055285;28;20052;-73
2021/09/25 03:04:29;;;;;;;10.18;6.53;;;9.10;99.90;;;;;;5055652;28;20041;-73
2021/09/25 03:06:55;;;;;;;8.65;5.97;;;9.00;99.90;;;;;;5055751;28;20037;-73
2021/09/25 03:09:22;;;;;;;9.30;6.53;;;9.00;99.90;;;;;;5054792;28;20033;-73
2021/09/25 03:11:49;;;;;;;9.27;6.80;;;8.90;99.90;;;;;;5055469;28;20041;-75
2021/09/25 03:14:16;;;;;;;9.02;6.35;;;8.80;99.90;;;;;;5054830;28;20040;-73
2021/09/25 03:16:42;;;;;;;9.38;6.70;;;8.80;99.90;;;;;;5055560;28;20029;-74
2021/09/25 03:19:09;;;;;;;11.93;7.10;;;8.70;99.90;;;;;;5055289;28;20025;-75
2021/09/25 03:21:35;;;;;;;9.95;7.22;;;8.60;99.90;;;;;;5054681;28;20041;-74
2021/09/25 03:24:01;;;;;;;11.02;7.47;;;8.60;99.90;;;;;;5054662;28;20391;-72
2021/09/25 03:26:27;;;;;;;12.95;8.23;;;8.70;99.90;;;;;;5052832;28;20048;-73
2021/09/25 03:28:53;;;;;;;12.23;6.88;;;8.80;99.90;;;;;;5045443;28;20029;-74
2021/09/25 03:31:19;;;;;;;9.80;6.20;;;8.70;99.90;;;;;;5054881;28;20056;-74
2021/09/25 03:33:46;;;;;;;10.00;6.63;;;8.70;99.90;;;;;;5054967;28;20047;-73
2021/09/25 03:36:12;;;;;;;9.98;6.47;;;8.60;99.90;;;;;;5054392;28;20041;-74
2021/09/25 03:38:38;;;;;;;11.07;6.53;;;8.60;99.90;;;;;;5054974;28;20501;-74
2021/09/25 03:41:05;;;;;;;9.43;6.60;;;8.70;99.90;;;;;;5054321;28;20033;-73
2021/09/25 03:43:31;;;;;;;12.20;6.45;;;8.70;99.90;;;;;;5055053;28;20045;-74
2021/09/25 03:45:57;;;;;;;8.70;5.82;;;8.60;99.90;;;;;;5053948;28;20059;-73
2021/09/25 03:48:23;;;;;;;9.52;5.88;;;8.50;99.90;;;;;;5054474;28;20402;-73
2021/09/25 03:50:50;;;;;;;8.77;6.10;;;8.40;99.90;;;;;;5055070;28;20029;-74
2021/09/25 03:53:16;;;;;;;10.63;6.68;;;8.40;99.90;;;;;;5053791;28;20043;-74
2021/09/25 03:55:42;;;;;;;9.90;6.57;;;8.30;99.90;;;;;;5054992;28;20029;-75
2021/09/25 03:58:08;;;;;;;8.52;6.32;;;8.20;99.90;;;;;;5054028;28;20387;-74
2021/09/25 04:00:42;;;;;;;10.27;6.72;;;8.10;99.90;;;;;;5035861;28;20041;-74
2021/09/25 04:03:12;;;;;;;9.82;6.72;;;8.10;99.90;;;;;;5054347;28;20028;-74
2021/09/25 04:05:39;;;;;;;11.35;7.30;;;8.10;99.90;;;;;;5054402;28;20056;-74
2021/09/25 04:08:06;;;;;;;9.93;6.70;;;8.10;99.90;;;;;;5053833;28;20032;-74
2021/09/25 04:10:33;;;;;;;16.08;7.28;;;8.10;99.90;;;;;;5054175;28;20045;-74
2021/09/25 04:12:59;;;;;;;13.13;7.13;;;8.10;99.90;;;;;;5054165;28;20453;-74
2021/09/25 04:15:25;;;;;;;10.95;7.15;;;8.00;99.90;;;;;;5054486;28;20063;-73
2021/09/25 04:17:52;;;;;;;8.88;6.55;;;8.00;99.90;;;;;;5062702;28;20060;-75
2021/09/25 04:20:18;;;;;;;10.68;6.80;;;8.10;99.90;;;;;;5053929;28;20033;-74
2021/09/25 04:22:44;;;;;;;13.73;7.10;;;8.10;99.90;;;;;;5054433;28;20378;-74
2021/09/25 04:25:11;;;;;;;9.77;7.03;;;8.10;99.90;;;;;;5053556;28;20386;-74
2021/09/25 04:27:37;;;;;;;11.93;7.53;;;8.20;99.90;;;;;;5054516;28;20367;-74
2021/09/25 04:30:04;;;;;;;9.85;6.75;;;8.20;99.90;;;;;;5052804;28;20033;-74
2021/09/25 04:32:30;;;;;;;13.98;6.65;;;8.10;99.90;;;;;;5054147;28;20033;-74
2021/09/25 04:34:57;;;;;;;10.70;6.97;;;8.00;99.90;;;;;;5054110;28;20044;-73
2021/09/25 04:37:23;;;;;;;11.23;6.60;;;8.00;99.90;;;;;;5054295;28;20037;-72
2021/09/25 04:39:50;;;;;;;17.02;6.57;;;7.90;99.90;;;;;;5054068;28;20033;-74
2021/09/25 04:42:16;;;;;;;11.90;7.18;;;7.80;99.90;;;;;;5053463;28;20036;-74
2021/09/25 04:44:42;;;;;;;13.73;7.97;;;7.80;99.90;;;;;;5023188;28;20061;-73
2021/09/25 04:47:08;;;;;;;12.90;7.20;;;8.00;99.90;;;;;;5013927;28;20045;-73
2021/09/25 04:49:35;;;;;;;10.63;7.32;;;8.00;99.90;;;;;;5013986;28;20057;-73
2021/09/25 04:52:01;;;;;;;13.30;7.00;;;7.90;99.90;;;;;;5013536;28;20037;-75
2021/09/25 04:54:27;;;;;;;9.13;6.72;;;7.90;99.90;;;;;;5014405;28;20038;-75
2021/09/25 04:56:53;;;;;;;10.88;7.30;;;7.90;99.90;;;;;;5013917;28;20034;-73
2021/09/25 04:59:19;;;;;;;11.38;7.93;;;7.80;99.90;;;;;;5028373;28;20030;-74
2021/09/25 05:01:46;;;;;;;12.35;7.43;;;7.80;99.90;;;;;;5014125;28;20049;-74
2021/09/25 05:04:13;;;;;;;10.40;7.40;;;7.80;99.90;;;;;;5013307;28;20038;-73
2021/09/25 05:06:39;;;;;;;11.07;7.22;;;7.80;99.90;;;;;;5014075;28;20484;-74
2021/09/25 05:09:05;;;;;;;11.07;6.93;;;7.80;99.90;;;;;;5013525;28;20030;-74
2021/09/25 05:11:31;;;;;;;11.65;7.70;;;7.90;99.90;;;;;;5012775;28;20101;-74
2021/09/25 05:13:57;;;;;;;14.00;7.47;;;7.90;99.90;;;;;;5013697;28;20057;-74
2021/09/25 05:16:23;;;;;;;10.20;6.90;;;7.80;99.90;;;;;;5013677;28;20037;-74
2021/09/25 05:18:50;;;;;;;13.50;7.85;;;7.80;99.90;;;;;;5028408;28;20042;-73
2021/09/25 05:21:16;;;;;;;11.73;7.65;;;7.80;99.90;;;;;;5013108;28;20034;-73
2021/09/25 05:23:42;;;;;;;11.80;7.70;;;7.80;99.90;;;;;;5013269;28;20041;-73
2021/09/25 05:26:09;;;;;;;12.93;6.65;;;7.90;99.90;;;;;;5012925;28;20038;-73
2021/09/25 05:28:36;;;;;;;10.27;6.78;;;7.90;99.90;;;;;;5013094;28;20034;-73
2021/09/25 05:31:02;;;;;;;11.57;7.65;;;7.90;99.90;;;;;;5012970;28;20030;-73
2021/09/25 05:33:28;;;;;;;11.57;7.57;;;7.90;99.90;;;;;;5013409;28;20391;-73
2021/09/25 05:35:55;;;;;;;10.25;7.20;;;7.90;99.90;;;;;;5013012;28;20422;-73
2021/09/25 05:38:21;;;;;;;11.52;7.18;;;8.00;99.90;;;;;;5012599;28;20037;-73
2021/09/25 05:40:47;;;;;;;12.45;7.90;;;8.10;99.90;;;;;;5012988;28;20033;-73
2021/09/25 05:43:13;;;;;;;12.90;7.78;;;8.10;99.90;;;;;;5011525;28;20049;-73
2021/09/25 05:45:40;;;;;;;9.93;6.90;;;8.00;99.90;;;;;;5047226;28;20057;-73
2021/09/25 05:48:07;;;;;;;11.98;7.40;;;8.10;99.90;;;;;;5052225;28;20136;-73
2021/09/25 05:50:33;;;;;;;13.02;8.55;;;8.20;99.90;;;;;;5064465;28;20032;-74
2021/09/25 05:52:59;;;;;;;11.80;7.63;;;8.30;99.90;;;;;;5071933;28;20045;-74
2021/09/25 05:55:26;;;;;;;9.73;6.72;;;8.30;99.90;;;;;;5069379;28;20381;-74
2021/09/25 05:57:58;;;;;;;12.25;7.55;;;8.40;99.90;;;;;;5064263;28;20033;-76
2021/09/25 06:00:24;;;;;;;14.88;7.80;;;8.40;99.90;;;;;;5052315;28;20351;-75
2021/09/25 06:02:50;;;;;;;10.70;6.72;;;8.40;99.90;;;;;;5052393;28;20025;-75
2021/09/25 06:05:16;;;;;;;12.48;7.32;;;8.50;99.90;;;;;;5051185;28;20057;-75
2021/09/25 06:07:42;;;;;;;10.13;7.00;;;8.50;99.90;;;;;;5044785;28;20041;-76
2021/09/25 06:10:09;;;;;;;10.57;7.03;;;8.70;99.90;;;;;;5051332;28;20041;-75
2021/09/25 06:12:35;;;;;;;12.43;7.28;;;8.80;99.90;;;;;;5052344;28;20036;-76
2021/09/25 06:15:02;;;;;;;11.45;7.18;;;9.00;99.90;;;;;;5051667;28;20041;-74
2021/09/25 06:17:29;;;;;;;11.68;7.85;;;9.10;99.90;;;;;;5051888;28;20481;-75
2021/09/25 06:19:55;;;;;;;50.20;29.25;;;9.20;99.90;;;;;;5051864;28;20033;-75
2021/09/25 06:22:22;;;;;;;21.38;14.77;;;9.40;99.90;;;;;;5051201;28;20037;-75
2021/09/25 06:24:48;;;;;;;18.40;11.75;;;9.60;99.90;;;;;;5052527;28;20048;-75
2021/09/25 06:27:14;;;;;;;13.68;7.00;;;9.80;99.90;;;;;;5052548;28;20041;-76
2021/09/25 06:29:41;;;;;;;8.82;6.05;;;10.20;99.90;;;;;;5053180;28;20036;-76
2021/09/25 06:32:07;;;;;;;51.78;33.70;;;10.80;99.90;;;;;;5051846;28;20465;-76
2021/09/25 06:34:34;;;;;;;11.75;8.10;;;12.30;99.90;;;;;;5052316;28;20462;-76
2021/09/25 06:37:00;;;;;;;8.68;6.28;;;13.40;99.90;;;;;;5052179;28;20036;-76
2021/09/25 06:39:26;;;;;;;10.82;6.82;;;14.30;97.90;;;;;;5051842;28;20501;-76
2021/09/25 06:41:52;;;;;;;9.30;5.72;;;15.90;91.80;;;;;;5051998;28;20052;-77
2021/09/25 06:44:18;;;;;;;9.23;6.15;;;16.20;87.60;;;;;;5051316;28;20405;-76
2021/09/25 06:46:45;;;;;;;10.77;7.22;;;17.20;84.90;;;;;;5051804;28;20052;-76
2021/09/25 06:49:11;;;;;;;7.80;5.60;;;18.10;82.70;;;;;;5051284;28;20040;-76
2021/09/25 06:51:37;;;;;;;9.68;6.53;;;18.70;79.70;;;;;;5051614;28;20029;-76
2021/09/25 06:54:03;;;;;;;8.35;6.40;;;19.20;78.20;;;;;;5051013;28;20033;-76
2021/09/25 06:56:30;;;;;;;8.38;6.63;;;19.90;74.70;;;;;;5051577;28;20036;-76
2021/09/25 06:58:56;;;;;;;8.18;6.22;;;19.90;73.80;;;;;;5060221;28;20024;-75
2021/09/25 07:01:22;;;;;;;11.45;7.60;;;19.60;74.80;;;;;;5067709;28;20039;-76
2021/09/25 07:03:48;;;;;;;10.38;7.13;;;19.30;75.00;;;;;;5068537;28;20347;-76
2021/09/25 07:06:15;;;;;;;9.18;6.50;;;19.50;75.30;;;;;;5069335;28;20025;-76
2021/09/25 07:08:41;;;;;;;10.80;8.30;;;19.60;74.90;;;;;;5057495;28;20033;-76
2021/09/25 07:11:07;;;;;;;8.32;5.88;;;19.70;74.60;;;;;;5051298;28;20048;-76
2021/09/25 07:13:33;;;;;;;8.57;6.72;;;19.70;75.10;;;;;;5047337;28;20028;-74
2021/09/25 07:15:59;;;;;;;8.00;7.15;;;19.50;74.60;;;;;;5066446;28;20033;-77
2021/09/25 07:18:25;;;;;;;9.00;7.20;;;19.10;76.40;;;;;;5051533;28;20048;-77
2021/09/25 07:20:52;;;;;;;10.43;6.55;;;18.90;78.00;;;;;;5051551;28;20025;-76
2021/09/25 07:23:18;;;;;;;10.65;7.43;;;18.90;77.60;;;;;;5052188;28;20443;-77
2021/09/25 07:25:44;;;;;;;10.98;7.25;;;18.90;77.50;;;;;;5051322;28;20048;-75
2021/09/25 07:28:11;;;;;;;12.30;8.00;;;18.90;77.40;;;;;;5052235;28;20032;-75
2021/09/25 07:30:38;;;;;;;13.13;7.72;;;18.60;77.30;;;;;;5052040;28;20044;-75
2021/09/25 07:33:06;;;;;;;10.35;7.85;;;17.50;81.80;;;;;;5061709;28;20036;-76
2021/09/25 07:35:34;;;;;;;9.38;7.50;;;17.80;83.40;;;;;;5064320;28;20044;-77
2021/09/25 07:38:02;;;;;;;10.57;8.23;;;18.40;81.00;;;;;;5059942;28;20040;-76
2021/09/25 07:40:29;;;;;;;12.90;8.55;;;18.70;79.30;;;;;;5055258;28;20025;-77
2021/09/25 07:42:56;;;;;;;9.68;7.78;;;18.50;79.10;;;;;;5055079;28;20028;-76
2021/09/25 07:45:22;;;;;;;10.45;7.82;;;18.50;80.20;;;;;;5054351;28;20304;-76
2021/09/25 07:47:48;;;;;;;9.98;7.95;;;19.00;78.80;;;;;;5055264;28;20463;-76
2021/09/25 07:50:15;;;;;;;9.32;7.88;;;19.20;76.90;;;;;;5054751;28;20032;-75
2021/09/25 07:52:42;;;;;;;10.70;7.57;;;19.00;78.90;;;;;;5037601;28;20041;-75
2021/09/25 07:55:10;;;;;;;10.25;8.05;;;19.20;78.30;;;;;;5054499;28;20035;-75
2021/09/25 07:57:37;;;;;;;12.02;8.10;;;19.10;77.30;;;;;;5056533;28;20044;-77
2021/09/25 08:00:06;;;;;;;10.80;8.27;;;18.70;79.20;;;;;;5055901;28;20473;-75
2021/09/25 08:02:37;;;;;;;10.05;7.38;;;18.30;80.20;;;;;;5063678;28;20048;-77
2021/09/25 08:05:04;;;;;;;9.80;7.55;;;18.60;78.80;;;;;;5055985;28;20371;-76
2021/09/25 08:07:31;;;;;;;11.73;8.45;;;18.90;78.80;;;;;;5056419;28;20040;-76
2021/09/25 08:09:57;;;;;;;10.25;7.93;;;19.20;77.60;;;;;;5072272;28;20040;-78
2021/09/25 08:12:23;;;;;;;9.27;8.00;;;19.10;77.40;;;;;;5041822;28;20041;-77
2021/09/25 08:14:50;;;;;;;10.93;8.30;;;19.20;77.70;;;;;;5057854;28;20048;-77
2021/09/25 08:17:17;;;;;;;11.45;8.07;;;19.30;76.30;;;;;;5056449;28;20036;-76
2021/09/25 08:19:43;;;;;;;12.95;8.25;;;19.90;76.60;;;;;;5038996;28;20621;-77
2021/09/25 08:22:09;;;;;;;9.50;7.35;;;20.40;74.00;;;;;;5038132;28;20037;-77
2021/09/25 08:24:36;;;;;;;10.60;8.23;;;20.50;74.00;;;;;;5054667;28;20037;-77
2021/09/25 08:27:02;;;;;;;10.95;7.47;;;20.70;73.50;;;;;;5055169;28;20036;-77
2021/09/25 08:29:28;;;;;;;10.45;8.05;;;20.50;72.80;;;;;;5067773;28;20039;-74
2021/09/25 08:31:54;;;;;;;10.63;7.95;;;20.00;73.50;;;;;;5065102;28;20033;-77
2021/09/25 08:34:21;;;;;;;10.07;7.65;;;20.20;73.90;;;;;;5059878;28;20029;-75
2021/09/25 08:36:47;;;;;;;8.80;7.15;;;20.70;73.00;;;;;;5058461;28;20041;-76
2021/09/25 08:39:14;;;;;;;10.10;7.20;;;21.20;71.30;;;;;;5059645;28;20033;-78
2021/09/25 08:41:41;;;;;;;9.52;6.95;;;21.70;69.90;;;;;;5040746;28;20028;-77
2021/09/25 08:44:07;;;;;;;9.25;7.38;;;22.00;69.70;;;;;;5037152;28;20447;-77
2021/09/25 08:46:35;;;;;;;9.38;6.65;;;22.10;67.70;;;;;;5019570;28;20054;-77
2021/09/25 08:49:04;;;;;;;8.70;6.82;;;21.90;68.40;;;;;;5040564;28;20045;-77
2021/09/25 08:51:30;;;;;;;8.35;6.93;;;21.90;68.10;;;;;;5041842;28;20029;-77
2021/09/25 08:53:57;;;;;;;9.57;6.90;;;21.30;69.40;;;;;;5039241;28;20037;-78
2021/09/25 08:56:27;;;;;;;8.13;6.40;;;20.10;72.40;;;;;;5002790;28;20033;-76
2021/09/25 08:58:54;;;;;;;7.95;6.45;;;20.30;73.90;;;;;;5034518;28;20064;-77
2021/09/25 09:01:23;;;;;;;11.55;7.60;;;21.00;70.90;;;;;;5034004;28;20038;-78
2021/09/25 09:03:51;;;;;;;8.73;7.28;;;19.60;73.30;;;;;;5031581;28;20050;-79
2021/09/25 09:06:24;;;;;;;11.88;7.85;;;20.00;74.30;;;;;;5031661;28;20049;-79
2021/09/25 09:08:53;;;;;;;9.48;7.18;;;21.00;70.20;;;;;;5034004;28;20037;-78
2021/09/25 09:11:21;;;;;;;9.00;7.50;;;21.90;69.10;;;;;;5039258;28;20699;-78
2021/09/25 09:13:50;;;;;;;8.38;6.65;;;22.60;66.10;;;;;;5045003;28;20041;-77
2021/09/25 09:16:17;;;;;;;8.32;6.55;;;22.00;66.00;;;;;;5063048;28;20045;-76
2021/09/25 09:18:46;;;;;;;8.13;6.80;;;21.30;68.80;;;;;;5052929;28;20049;-77
2021/09/25 09:21:18;;;;;;;10.52;6.30;;;21.20;67.80;;;;;;5055707;28;20067;-77
2021/09/25 09:24:07;;;;;;;8.93;7.00;;;21.70;67.90;;;;;;5071316;28;20025;-77
2021/09/25 09:26:36;;;;;;;8.53;6.80;;;22.10;67.00;;;;;;5075025;28;20040;-78
2021/09/25 09:29:05;;;;;;;9.87;6.60;;;21.90;68.70;;;;;;5071447;28;20279;-78
2021/09/25 09:31:33;;;;;;;9.43;6.47;;;22.50;67.40;;;;;;5073707;28;20291;-76
2021/09/25 09:34:02;;;;;;;11.45;6.68;;;21.90;66.30;;;;;;5073694;28;20028;-77
2021/09/25 09:36:36;;;;;;;11.02;6.72;;;21.30;68.40;;;;;;5064185;28;20029;-79
2021/09/25 09:39:12;;;;;;;9.52;6.78;;;21.60;67.30;;;;;;5048531;28;20393;-77
2021/09/25 09:41:39;;;;;;;9.20;6.60;;;21.90;66.90;;;;;;5055032;28;20036;-77
2021/09/25 09:44:13;;;;;;;10.25;7.22;;;21.80;66.10;;;;;;5054198;28;20045;-74
2021/09/25 09:46:48;;;;;;;10.63;7.03;;;21.30;66.20;;;;;;5054662;28;20052;-79
2021/09/25 09:49:21;;;;;;;8.23;6.72;;;20.80;67.30;;;;;;5055690;28;20044;-79
2021/09/25 09:51:52;;;;;;;9.30;6.57;;;20.50;68.50;;;;;;5073366;28;20058;-78
2021/09/25 09:54:24;;;;;;;8.35;5.50;;;20.20;69.90;;;;;;5054278;28;20025;-78
2021/09/25 09:56:58;;;;;;;12.88;7.50;;;20.20;70.20;;;;;;5053914;28;20385;-78
2021/09/25 09:59:25;;;;;;;9.40;6.07;;;20.10;69.90;;;;;;5053683;28;20055;-78
2021/09/25 10:01:52;;;;;;;9.35;6.07;;;20.40;70.40;;;;;;5054394;28;20033;-78
2021/09/25 10:04:20;;;;;;;9.35;6.00;;;20.80;69.70;;;;;;5053406;28;20037;-79
2021/09/25 10:06:47;;;;;;;7.43;5.40;;;21.00;69.10;;;;;;5054445;28;20049;-79
2021/09/25 10:09:20;;;;;;;7.47;5.40;;;21.20;68.00;;;;;;5053947;28;20354;-77
2021/09/25 10:11:49;;;;;;;7.47;5.93;;;21.40;68.60;;;;;;5053824;28;20025;-78
2021/09/25 10:14:19;;;;;;;7.30;4.63;;;21.20;66.90;;;;;;5067057;28;20039;-79
2021/09/25 10:16:46;;;;;;;7.15;5.55;;;21.10;67.40;;;;;;5053820;28;20402;-79
2021/09/25 10:19:19;;;;;;;6.03;5.10;;;20.80;68.40;;;;;;5053322;28;20029;-77
2021/09/25 10:21:48;;;;;;;7.13;5.30;;;20.70;69.00;;;;;;5054104;28;20029;-79
2021/09/25 10:24:22;;;;;;;7.15;4.60;;;21.00;68.90;;;;;;5052545;28;20033;-79
2021/09/25 10:26:49;;;;;;;6.38;4.43;;;21.30;68.20;;;;;;5053494;28;20501;-79
2021/09/25 10:29:19;;;;;;;7.30;4.78;;;21.50;67.40;;;;;;5035743;28;20025;-78
2021/09/25 10:31:46;;;;;;;6.85;4.70;;;21.80;66.30;;;;;;5019568;28;20041;-77
2021/09/25 10:34:14;;;;;;;7.78;4.32;;;21.90;65.40;;;;;;5044263;28;20041;-79
2021/09/25 10:36:59;;;;;;;6.93;4.55;;;21.80;66.20;;;;;;5053854;28;20029;-78
2021/09/25 10:39:54;;;;;;;4.35;3.95;;;21.90;65.40;;;;;;5054947;28;20037;-78
2021/09/25 10:42:21;;;;;;;6.38;4.72;;;21.80;65.50;;;;;;5037078;28;20029;-78
2021/09/25 10:44:50;;;;;;;7.10;5.32;;;21.80;64.50;;;;;;5055196;28;20045;-79
2021/09/25 10:47:20;;;;;;;7.20;4.63;;;21.60;64.90;;;;;;5039871;28;20053;-80
2021/09/25 10:50:00;;;;;;;6.32;4.75;;;21.20;65.20;;;;;;5038867;28;20056;-77
2021/09/25 10:52:49;;;;;;;7.97;4.68;;;21.10;65.40;;;;;;5053369;28;20033;-78
2021/09/25 10:55:27;;;;;;;6.03;5.03;;;21.20;65.80;;;;;;5054251;28;20040;-78
2021/09/25 10:58:38;;;;;;;8.20;4.85;;;21.20;66.30;;;;;;5058472;28;20458;-78
2021/09/25 11:01:12;;;;;;;5.90;3.95;;;21.30;65.90;;;;;;5070795;28;20041;-78
2021/09/25 11:06:30;;;;;;;6.78;4.40;;;21.80;63.90;;;;;;5072349;28;20039;-75
2021/09/25 11:09:06;;;;;;;6.15;4.80;;;21.90;63.10;;;;;;5058872;28;20052;-79
2021/09/25 11:11:52;;;;;;;6.68;4.32;;;21.90;63.10;;;;;;5076995;28;20478;-79
2021/09/25 11:14:43;;;;;;;8.40;4.78;;;21.50;63.00;;;;;;5061890;28;20062;-78
2021/09/25 11:17:25;;;;;;;4.43;3.83;;;21.40;63.40;;;;;;5024618;28;20041;-79
2021/09/25 11:20:04;;;;;;;6.63;3.90;;;21.40;63.20;;;;;;5057487;28;20044;-78
2021/09/25 11:22:33;;;;;;;5.20;3.75;;;21.50;62.00;;;;;;5059802;28;20048;-79
2021/09/25 11:25:11;;;;;;;4.93;3.50;;;21.30;63.20;;;;;;5059867;28;20033;-78
2021/09/25 11:27:41;;;;;;;6.03;3.63;;;21.30;63.60;;;;;;5059756;28;20033;-78
2021/09/25 11:30:08;;;;;;;3.83;2.90;;;21.40;63.70;;;;;;5056208;28;20394;-76
2021/09/25 11:33:05;;;;;;;5.38;3.47;;;21.60;62.20;;;;;;5060286;28;20036;-77
2021/09/25 11:35:38;;;;;;;5.03;3.08;;;21.70;61.40;;;;;;5054292;28;20151;-79
2021/09/25 11:38:12;;;;;;;7.50;3.63;;;21.80;61.20;;;;;;5059375;28;20048;-78
2021/09/25 11:40:49;;;;;;;4.63;3.05;;;21.80;62.00;;;;;;5059199;28;20029;-78
2021/09/25 11:43:18;;;;;;;5.15;3.97;;;21.80;61.00;;;;;;5058298;28;20048;-79
2021/09/25 11:45:47;;;;;;;4.85;2.95;;;22.00;60.90;;;;;;5058368;28;20057;-78
2021/09/25 11:48:35;;;;;;;4.85;3.80;;;22.10;61.60;;;;;;5056345;28;20029;-79
2021/09/25 11:51:04;;;;;;;4.25;2.92;;;22.20;60.30;;;;;;5049082;28;20040;-79
2021/09/25 11:53:31;;;;;;;4.55;3.05;;;22.40;60.90;;;;;;5055045;28;20029;-79
2021/09/25 11:55:59;;;;;;;6.32;3.33;;;22.80;59.90;;;;;;5055103;28;20044;-79
2021/09/25 11:58:25;;;;;;;3.85;2.88;;;23.20;59.50;;;;;;5054276;28;20033;-78
2021/09/25 12:00:58;;;;;;;5.40;3.30;;;23.00;57.60;;;;;;5054841;28;20481;-78
2021/09/25 12:03:28;;;;;;;6.80;3.65;;;22.50;58.60;;;;;;5054639;28;20040;-78
2021/09/25 12:06:00;;;;;;;3.78;2.88;;;22.40;58.90;;;;;;5054747;28;20487;-76
2021/09/25 12:08:31;;;;;;;5.53;2.83;;;22.40;59.10;;;;;;5054226;28;20021;-78
2021/09/25 12:11:00;;;;;;;5.53;3.47;;;22.40;59.20;;;;;;5055044;28;20039;-78
2021/09/25 12:13:53;;;;;;;5.93;3.72;;;22.50;59.10;;;;;;5053865;28;20056;-78
2021/09/25 12:16:21;;;;;;;4.93;2.80;;;22.70;58.40;;;;;;5054340;28;20493;-78
2021/09/25 12:18:49;;;;;;;4.40;3.38;;;22.70;58.60;;;;;;5054553;28;20035;-78
2021/09/25 12:21:19;;;;;;;4.07;3.25;;;22.50;59.30;;;;;;5052732;28;20405;-78
2021/09/25 12:23:51;;;;;;;4.17;3.33;;;22.70;59.30;;;;;;5054198;28;20029;-79
2021/09/25 12:26:29;;;;;;;5.13;3.25;;;22.70;58.40;;;;;;5045049;28;20052;-79
2021/09/25 12:28:56;;;;;;;3.65;2.80;;;22.70;58.80;;;;;;5054319;28;20052;-78
2021/09/25 12:31:25;;;;;;;3.58;2.95;;;22.80;58.70;;;;;;5054002;28;20379;-79
2021/09/25 12:33:54;;;;;;;5.78;3.10;;;22.90;58.20;;;;;;5053949;28;20049;-78
2021/09/25 12:36:27;;;;;;;5.65;3.13;;;23.00;57.50;;;;;;5053654;28;20394;-79
2021/09/25 12:38:54;;;;;;;3.72;2.75;;;23.00;57.90;;;;;;5054956;28;20025;-77
2021/09/25 12:41:23;;;;;;;3.92;3.03;;;22.80;57.40;;;;;;5055863;28;20040;-76
2021/09/25 12:43:52;;;;;;;8.73;3.38;;;22.80;57.80;;;;;;5054819;28;20052;-78
2021/09/25 12:46:35;;;;;;;4.93;2.55;;;22.90;58.50;;;;;;5056505;28;20041;-79
2021/09/25 12:49:08;;;;;;;6.97;3.03;;;23.00;57.20;;;;;;5039082;28;20037;-79
2021/09/25 12:52:03;;;;;;;4.55;2.80;;;23.10;56.50;;;;;;5056820;28;20036;-80
2021/09/25 12:54:32;;;;;;;3.47;2.55;;;23.30;57.00;;;;;;5019845;28;20284;-78